Fergus Falls, MN

5:59 PM CDT on August 21, 2014 (GMT -0500)
Fergus Falls Municipal-Mickelson | Change Station
CLOSE
Current Station
Airport
Location: Fergus Falls,
Elevation: 1184 ft
Nearby Weather Stations

Elev 1184 ft 46.29 °N, 96.15 °W | Updated 5 minutes ago

Overcast
Overcast
75 °F
Feels Like 75 °F
N
6
Wind Variable Wind from ESE

Today
High -- | Low -- °F
--% Chance of Precip.
Yesterday
High -- | Low -- °F
Precip. -- in
6:30 AM 8:23 PM
Waning Crescent, 12% visible
Pressure 29.82 in
Visibility 10.0 miles
Clouds Mostly Cloudy 3200 ft
Overcast 4100 ft
Dew Point 66 °F
Humidity 73%
Rainfall 1.56 in
Snow Depth Not available.
UV 1 out of 12
Pollen 6.30 out of 12
Air Quality Not available.
Flu Activity Not available.
METAR KFFM 212254Z AUTO 11005KT 10SM BKN032 OVC041 24/19 A2982 RMK AO2

More Conditions Fewer Conditions

Pressure 29.82 in
Visibility 10.0 miles
Clouds Mostly Cloudy 3200 ft
Overcast 4100 ft
Dew Point 66 °F
Humidity 73%
Rainfall 1.56 in
Snow Depth Not available.
UV 1 out of 12
Pollen 6.30 out of 12
Air Quality Not available.
Flu Activity Not available.
METAR KFFM 212254Z AUTO 11005KT 10SM BKN032 OVC041 24/19 A2982 RMK AO2

More Conditions Fewer Conditions

10-Day Weather Forecast

Almanac

Astronomy

Aug. 21, 2014 Rise Set
Actual Time 6:30 AM CDT 8:23 PM CDT
Civil Twilight 5:58 AM CDT 8:55 PM CDT
Nautical Twilight 5:19 AM CDT 9:34 PM CDT
Astronomical Twilight 4:35 AM CDT 10:17 PM CDT
Moon 2:56 AM CDT 5:57 PM CDT
Length of Visible Light 14h 56m
Length of Day
13h 52m
Tomorrow will be 3m 3s shorter.
Waning Crescent, 12% of the Moon is Illuminated
Today
Waning Crescent
Aug 25
New
Sep 2
First Quarter
Sep 8
Full
Sep 15
Last Quarter

Today's Extremes

State Highs State Lows

Community

WunderPhotos

Upload Photos

1,746,044 photos uploaded!

WunderBlogs® & News

Nearby

Snow Depth

Station Depth Elevation
No new snow has been reported.

Earthquake Activity

City Distance Mag. Time & Date
No recent earthquake activity has been reported nearby.
Minimum magnitude displayed is 2.5.

Coastal Water Temperatures

Place Temperature
No Stations Reporting

Nearby Weather Stations